Kincaid, Kansas
Current Conditions -  °F | °C
As of 3:52 PM on Monday 24 Nov 2014 (Local Time) from KCNU Reporting Station
Clear Clear  
Wind Chill:   Ceiling: Unl
Heat Index:   Visibility: 10mi
Dew Point: -6°   Wind: 21mph
Humidity: 37%   Direction: 310°NW
Pressure: 29.92"   Gusts: 29mph
Location:  38.08°N, 95.15°W
Report Text: KCNU 242152Z AUTO 31018G25KT 10SM CLR 08/M06 A2992 RMK AO2 PK WND 30027/2132 SLP133 T00831056
Loading
Personal Weather Stations






























Interactive Weather Map New forecast layout! Learn more

10-Day Weather Forecast

Advertisements
Track Severe Weather on mobile